createdAt,value
2023-05-03T00:02:25.472Z,100.00
2023-05-03T00:04:54.373Z,100.00
2023-05-03T00:07:22.980Z,100.00
2023-05-03T00:09:52.554Z,100.00
2023-05-03T00:12:20.145Z,100.00
2023-05-03T00:14:47.068Z,100.00
2023-05-03T00:17:14.423Z,100.00
2023-05-03T00:19:42.708Z,100.00
2023-05-03T00:22:09.842Z,100.00
2023-05-03T00:24:36.705Z,100.00
2023-05-03T00:27:04.284Z,100.00
2023-05-03T00:29:31.155Z,100.00
2023-05-03T00:32:02.209Z,100.00
2023-05-03T00:34:31.317Z,100.00
2023-05-03T00:36:58.420Z,100.00
2023-05-03T00:39:25.263Z,100.00
2023-05-03T00:41:56.516Z,100.00
2023-05-03T00:44:23.465Z,100.00
2023-05-03T00:46:51.205Z,100.00
2023-05-03T00:49:18.284Z,100.00
2023-05-03T00:51:45.490Z,100.00
2023-05-03T00:54:15.260Z,100.00
2023-05-03T00:56:51.102Z,100.00
2023-05-03T00:59:19.027Z,100.00
2023-05-03T01:01:48.500Z,100.00
2023-05-03T01:04:16.171Z,100.00
2023-05-03T01:06:46.613Z,100.00
2023-05-03T01:09:17.399Z,100.00
2023-05-03T01:11:44.528Z,100.00
2023-05-03T01:14:17.155Z,100.00
2023-05-03T01:16:49.885Z,100.00
2023-05-03T01:19:28.618Z,100.00
2023-05-03T01:21:59.693Z,100.00
2023-05-03T01:24:28.203Z,100.00
2023-05-03T01:26:55.343Z,100.00
2023-05-03T01:29:22.223Z,100.00
2023-05-03T01:32:12.288Z,100.00
2023-05-03T01:34:42.135Z,100.00
2023-05-03T01:37:11.110Z,100.00
2023-05-03T01:39:44.407Z,100.00
2023-05-03T01:42:12.495Z,100.00
2023-05-03T01:44:40.753Z,100.00
2023-05-03T01:47:08.891Z,100.00
2023-05-03T01:49:35.892Z,100.00
2023-05-03T01:52:03.127Z,100.00
2023-05-03T01:54:30.068Z,100.00
2023-05-03T01:57:00.509Z,100.00
2023-05-03T01:59:29.799Z,100.00
2023-05-03T02:01:57.173Z,100.00
2023-05-03T02:04:24.087Z,100.00
2023-05-03T02:06:55.386Z,100.00
2023-05-03T02:09:22.620Z,100.00
2023-05-03T02:11:50.067Z,100.00
2023-05-03T02:14:17.382Z,100.00
2023-05-03T02:16:44.722Z,100.00
2023-05-03T02:19:11.578Z,100.00
2023-05-03T02:21:39.055Z,100.00
2023-05-03T02:24:06.101Z,100.00
2023-05-03T02:26:33.387Z,100.00
2023-05-03T02:29:00.268Z,100.00
2023-05-03T02:31:30.691Z,100.00
2023-05-03T02:33:58.206Z,100.00
2023-05-03T02:36:25.484Z,100.00
2023-05-03T02:38:53.430Z,100.00
2023-05-03T02:41:23.657Z,100.00
2023-05-03T02:43:51.214Z,100.00
2023-05-03T02:46:18.714Z,100.00
2023-05-03T02:48:45.642Z,100.00
2023-05-03T02:51:12.893Z,100.00
2023-05-03T02:53:42.427Z,100.00
2023-05-03T02:56:12.149Z,100.00
2023-05-03T02:58:39.084Z,100.00
2023-05-03T03:01:06.370Z,100.00
2023-05-03T03:03:33.302Z,100.00
2023-05-03T03:06:00.698Z,100.00
2023-05-03T03:08:30.861Z,100.00
2023-05-03T03:11:01.698Z,100.00
2023-05-03T03:13:29.180Z,100.00
2023-05-03T03:15:56.467Z,100.00
2023-05-03T03:18:23.278Z,100.00
2023-05-03T03:20:51.121Z,100.00
2023-05-03T03:23:22.613Z,100.00
2023-05-03T03:25:50.038Z,100.00
2023-05-03T03:28:17.647Z,100.00
2023-05-03T03:30:48.194Z,100.00
2023-05-03T03:33:24.247Z,100.00
2023-05-03T03:35:54.062Z,100.00
2023-05-03T03:38:24.390Z,100.00
2023-05-03T03:40:58.430Z,100.00
2023-05-03T03:43:26.500Z,100.00
2023-05-03T03:45:54.165Z,100.00
2023-05-03T03:48:21.303Z,100.00
2023-05-03T03:50:49.457Z,100.00
2023-05-03T03:53:17.545Z,100.00
2023-05-03T03:55:45.098Z,100.00
2023-05-03T03:58:15.955Z,100.00
2023-05-03T04:00:43.853Z,100.00
2023-05-03T04:03:15.647Z,100.00
2023-05-03T04:05:46.020Z,100.00
2023-05-03T04:08:14.866Z,100.00
2023-05-03T04:10:43.095Z,100.00
2023-05-03T04:13:10.851Z,100.00
2023-05-03T04:15:38.408Z,100.00
2023-05-03T04:18:06.095Z,100.00
2023-05-03T04:20:38.816Z,100.00
2023-05-03T04:23:07.487Z,100.00
2023-05-03T04:25:37.116Z,100.00
2023-05-03T04:28:10.290Z,100.00
2023-05-03T04:30:44.600Z,100.00
2023-05-03T04:33:13.952Z,100.00
2023-05-03T04:35:42.248Z,100.00
2023-05-03T04:38:12.986Z,100.00
2023-05-03T04:40:41.188Z,100.00
2023-05-03T04:43:10.112Z,100.00
2023-05-03T04:45:41.885Z,100.00
2023-05-03T04:48:13.320Z,100.00
2023-05-03T04:50:41.681Z,100.00
2023-05-03T04:53:10.937Z,100.00
2023-05-03T04:55:42.350Z,100.00
2023-05-03T04:58:10.220Z,100.00
2023-05-03T05:00:38.645Z,100.00
2023-05-03T05:03:12.010Z,100.00
2023-05-03T05:05:42.239Z,100.00
2023-05-03T05:08:12.134Z,100.00
2023-05-03T05:10:44.652Z,100.00
2023-05-03T05:13:18.730Z,100.00
2023-05-03T05:15:48.579Z,100.00
2023-05-03T05:18:15.781Z,100.00
2023-05-03T05:20:44.732Z,100.00
2023-05-03T05:23:14.896Z,100.00
2023-05-03T05:25:46.083Z,100.00
2023-05-03T05:28:13.242Z,100.00
2023-05-03T05:30:41.743Z,100.00
2023-05-03T05:33:08.633Z,100.00
2023-05-03T05:35:36.156Z,100.00
2023-05-03T05:38:04.615Z,100.00
2023-05-03T05:40:33.200Z,100.00
2023-05-03T05:43:01.133Z,100.00
2023-05-03T05:45:34.577Z,100.00
2023-05-03T05:48:02.528Z,100.00
2023-05-03T05:50:31.817Z,100.00
2023-05-03T05:53:03.114Z,100.00
2023-05-03T05:55:36.036Z,100.00
2023-05-03T05:58:05.556Z,100.00
2023-05-03T06:00:39.690Z,100.00
2023-05-03T06:03:07.136Z,100.00
2023-05-03T06:05:35.174Z,100.00
2023-05-03T06:08:02.389Z,100.00
2023-05-03T06:10:29.524Z,100.00
2023-05-03T06:12:57.957Z,100.00
2023-05-03T06:15:26.937Z,100.00
2023-05-03T06:17:53.929Z,100.00
2023-05-03T06:20:21.316Z,100.00
2023-05-03T06:22:50.260Z,100.00
2023-05-03T06:25:18.257Z,100.00
2023-05-03T06:27:48.765Z,100.00
2023-05-03T06:30:17.861Z,100.00
2023-05-03T06:32:47.689Z,100.00
2023-05-03T06:35:15.775Z,100.00
2023-05-03T06:37:43.852Z,100.00
2023-05-03T06:40:11.376Z,100.00
2023-05-03T06:42:38.257Z,100.00
2023-05-03T06:45:09.548Z,100.00
2023-05-03T06:47:40.279Z,100.00
2023-05-03T06:50:08.126Z,100.00
2023-05-03T06:52:35.034Z,100.00
2023-05-03T06:55:02.522Z,100.00
2023-05-03T06:57:29.390Z,100.00
2023-05-03T06:59:59.024Z,100.00
2023-05-03T07:02:27.062Z,100.00
2023-05-03T07:04:54.561Z,95.74
2023-05-03T07:07:21.626Z,91.30
2023-05-03T07:09:49.403Z,87.04
2023-05-03T07:12:16.584Z,91.20
2023-05-03T07:14:43.840Z,83.81
2023-05-03T07:17:13.174Z,84.19
2023-05-03T07:19:40.426Z,80.92
2023-05-03T07:22:07.473Z,77.89
2023-05-03T07:24:37.084Z,74.46
2023-05-03T07:27:04.141Z,81.79
2023-05-03T07:29:31.489Z,83.99
2023-05-03T07:31:59.225Z,81.58
2023-05-03T07:34:29.308Z,76.83
2023-05-03T07:36:56.464Z,70.87
2023-05-03T07:39:23.824Z,71.73
2023-05-03T07:41:50.988Z,70.08
2023-05-03T07:44:18.223Z,60.16
2023-05-03T07:46:45.183Z,60.45
2023-05-03T07:49:12.427Z,67.14
2023-05-03T07:51:42.687Z,74.88
2023-05-03T07:54:09.963Z,68.05
2023-05-03T07:56:37.902Z,63.39
2023-05-03T07:59:09.997Z,60.67
2023-05-03T08:01:37.831Z,59.87
2023-05-03T08:04:05.900Z,57.53
2023-05-03T08:06:35.948Z,57.01
2023-05-03T08:09:04.816Z,55.27
2023-05-03T08:11:31.958Z,53.92
2023-05-03T08:13:59.346Z,49.81
2023-05-03T08:16:27.109Z,46.69
2023-05-03T08:18:55.168Z,45.45
2023-05-03T08:21:24.838Z,47.01
2023-05-03T08:23:52.117Z,47.81
2023-05-03T08:26:19.033Z,48.68
2023-05-03T08:28:46.526Z,49.77
2023-05-03T08:31:14.117Z,51.64
2023-05-03T08:33:41.362Z,49.98
2023-05-03T08:36:10.985Z,49.16
2023-05-03T08:38:43.295Z,47.41
2023-05-03T08:41:30.482Z,46.47
2023-05-03T08:43:58.826Z,44.10
2023-05-03T08:46:28.742Z,46.21
2023-05-03T08:48:59.022Z,50.49
2023-05-03T08:51:27.841Z,56.05
2023-05-03T08:53:55.081Z,57.58
2023-05-03T08:56:28.196Z,54.45
2023-05-03T08:58:55.512Z,51.45
2023-05-03T09:01:24.911Z,53.44
2023-05-03T09:03:52.580Z,56.13
2023-05-03T09:06:20.929Z,52.14
2023-05-03T09:08:48.190Z,53.66
2023-05-03T09:11:22.989Z,49.17
2023-05-03T09:13:51.705Z,47.70
2023-05-03T09:16:28.721Z,43.66
2023-05-03T09:18:59.828Z,45.83
2023-05-03T09:21:28.681Z,47.97
2023-05-03T09:23:56.076Z,45.96
2023-05-03T09:26:29.066Z,44.09
2023-05-03T09:28:57.752Z,44.92
2023-05-03T09:31:27.971Z,44.64
2023-05-03T09:33:55.679Z,46.63
2023-05-03T09:36:22.888Z,50.03
2023-05-03T09:38:51.007Z,49.10
2023-05-03T09:41:29.422Z,46.18
2023-05-03T09:43:58.787Z,44.97
2023-05-03T09:46:26.627Z,43.13
2023-05-03T09:48:57.318Z,41.82
2023-05-03T09:51:29.144Z,38.75
2023-05-03T09:53:56.680Z,42.35
2023-05-03T09:56:27.593Z,46.88
2023-05-03T09:58:55.069Z,48.05
2023-05-03T10:01:26.847Z,47.29
2023-05-03T10:03:57.582Z,44.42
2023-05-03T10:06:24.926Z,46.64
2023-05-03T10:09:05.770Z,45.59
2023-05-03T10:11:34.592Z,45.75
2023-05-03T10:14:02.046Z,46.57
2023-05-03T10:16:34.279Z,44.82
2023-05-03T10:19:07.220Z,41.67
2023-05-03T10:21:57.549Z,45.63
2023-05-03T10:24:27.357Z,47.00
2023-05-03T10:26:55.843Z,47.55
2023-05-03T10:29:36.119Z,49.89
2023-05-03T10:32:06.138Z,50.87
2023-05-03T10:34:34.067Z,53.17
2023-05-03T10:37:09.644Z,54.87
2023-05-03T10:39:37.232Z,53.96
2023-05-03T10:42:08.953Z,54.57
2023-05-03T10:44:41.189Z,51.74
2023-05-03T10:47:15.002Z,49.09
2023-05-03T10:49:42.486Z,45.97
2023-05-03T10:52:28.119Z,43.39
2023-05-03T10:54:57.685Z,44.41
2023-05-03T10:57:27.570Z,46.23
2023-05-03T10:59:57.628Z,44.28
2023-05-03T11:02:32.794Z,48.08
2023-05-03T11:05:04.467Z,44.95
2023-05-03T11:07:31.912Z,43.14
2023-05-03T11:09:59.147Z,44.53
2023-05-03T11:12:26.201Z,47.07
2023-05-03T11:14:53.662Z,47.86
2023-05-03T11:17:21.868Z,49.61
2023-05-03T11:19:49.963Z,51.08
2023-05-03T11:22:16.876Z,53.41
2023-05-03T11:24:44.340Z,52.62
2023-05-03T11:27:15.803Z,55.65
2023-05-03T11:29:51.234Z,55.99
2023-05-03T11:32:21.545Z,56.32
2023-05-03T11:34:51.478Z,55.61
2023-05-03T11:37:18.608Z,55.00
2023-05-03T11:39:47.842Z,57.29
2023-05-03T11:42:17.377Z,57.71
2023-05-03T11:44:45.253Z,55.79
2023-05-03T11:47:12.257Z,57.23
2023-05-03T11:49:51.265Z,59.93
2023-05-03T11:52:22.490Z,61.87
2023-05-03T11:54:49.897Z,62.08
2023-05-03T11:57:16.970Z,60.94
2023-05-03T11:59:44.879Z,62.08
2023-05-03T12:02:13.270Z,61.38
2023-05-03T12:04:43.259Z,61.30
2023-05-03T12:07:15.105Z,61.90
2023-05-03T12:09:52.875Z,62.83
2023-05-03T12:12:31.575Z,62.55
2023-05-03T12:15:04.218Z,63.39
2023-05-03T12:17:39.646Z,64.66
2023-05-03T12:22:51.987Z,67.89
2023-05-03T12:25:20.942Z,67.74
2023-05-03T12:28:07.350Z,67.52
2023-05-03T12:30:40.659Z,66.22
2023-05-03T12:33:10.005Z,67.78
2023-05-03T12:35:41.345Z,69.25
2023-05-03T12:38:09.671Z,69.83
2023-05-03T12:40:39.416Z,70.90
2023-05-03T12:43:07.146Z,73.32
2023-05-03T12:45:40.230Z,72.69
2023-05-03T12:48:11.211Z,75.87
2023-05-03T12:50:44.930Z,76.09
2023-05-03T12:53:16.641Z,77.09
2023-05-03T12:55:51.415Z,78.85
2023-05-03T13:01:37.044Z,78.71
2023-05-03T13:03:43.523Z,79.43
2023-05-03T13:06:14.088Z,78.83
2023-05-03T13:11:12.909Z,82.06
2023-05-03T13:13:40.213Z,83.81
2023-05-03T13:16:07.986Z,85.78
2023-05-03T13:18:39.021Z,86.12
2023-05-03T13:21:08.058Z,88.25
2023-05-03T13:23:34.912Z,88.66
2023-05-03T13:26:02.134Z,87.79
2023-05-03T13:28:29.007Z,88.67
2023-05-03T13:30:58.781Z,88.08
2023-05-03T13:33:28.761Z,89.83
2023-05-03T13:35:56.741Z,91.27
2023-05-03T13:38:23.768Z,91.67
2023-05-03T13:40:51.087Z,89.26
2023-05-03T13:43:18.016Z,87.55
2023-05-03T13:45:45.171Z,89.96
2023-05-03T13:48:18.745Z,87.07
2023-05-03T13:50:46.473Z,85.37
2023-05-03T13:53:13.409Z,83.98
2023-05-03T13:55:41.116Z,80.93
2023-05-03T13:58:08.687Z,79.24
2023-05-03T14:00:36.204Z,79.07
2023-05-03T14:03:04.334Z,76.42
2023-05-03T14:05:31.907Z,73.87
2023-05-03T14:07:59.533Z,74.68
2023-05-03T14:10:27.025Z,73.88
2023-05-03T14:12:58.042Z,72.87
2023-05-03T14:15:27.980Z,74.28
2023-05-03T14:17:59.280Z,72.33
2023-05-03T14:20:30.381Z,68.47
2023-05-03T14:22:57.393Z,69.48
2023-05-03T14:25:26.103Z,68.58
2023-05-03T14:27:52.973Z,68.36
2023-05-03T14:30:20.497Z,67.99
2023-05-03T14:32:47.885Z,68.14
2023-05-03T14:35:15.640Z,69.45
2023-05-03T14:37:42.625Z,68.99
2023-05-03T14:40:10.092Z,69.48
2023-05-03T14:42:37.036Z,66.08
2023-05-03T14:45:05.602Z,67.79
2023-05-03T14:47:32.837Z,66.50
2023-05-03T14:50:01.216Z,66.57
2023-05-03T14:52:28.499Z,67.75
2023-05-03T14:54:55.790Z,67.43
2023-05-03T14:57:22.648Z,67.71
2023-05-03T14:59:52.571Z,66.97
2023-05-03T15:02:19.583Z,67.33
2023-05-03T15:04:50.414Z,66.99
2023-05-03T15:07:17.298Z,66.39
2023-05-03T15:09:44.919Z,65.78
2023-05-03T15:12:11.997Z,67.68
2023-05-03T15:14:39.481Z,66.71
2023-05-03T15:17:08.945Z,66.02
2023-05-03T15:19:36.446Z,66.50
2023-05-03T15:22:05.870Z,66.58
2023-05-03T15:24:33.071Z,66.36
2023-05-03T15:27:00.857Z,66.59
2023-05-03T15:29:28.150Z,67.59
2023-05-03T15:31:54.992Z,67.00
2023-05-03T15:34:24.871Z,67.91
2023-05-03T15:36:54.425Z,67.53
2023-05-03T15:39:22.709Z,68.60
2023-05-03T15:41:49.557Z,69.74
2023-05-03T15:44:16.898Z,69.72
2023-05-03T15:46:44.420Z,71.63
2023-05-03T15:49:12.117Z,72.25
2023-05-03T15:51:39.398Z,69.74
2023-05-03T15:54:07.206Z,68.77
2023-05-03T15:56:34.130Z,68.27
2023-05-03T15:59:01.489Z,66.98
2023-05-03T16:01:28.564Z,68.01
2023-05-03T16:03:56.211Z,68.94
2023-05-03T16:06:23.188Z,69.65
2023-05-03T16:08:50.953Z,70.52
2023-05-03T16:11:17.865Z,70.89
2023-05-03T16:13:45.125Z,70.41
2023-05-03T16:16:12.459Z,70.00
2023-05-03T16:18:39.778Z,70.62
2023-05-03T16:21:14.563Z,71.36
2023-05-03T16:23:41.742Z,69.53
2023-05-03T16:26:15.145Z,71.32
2023-05-03T16:28:42.474Z,72.50
2023-05-03T16:31:09.423Z,72.98
2023-05-03T16:33:36.788Z,74.20
2023-05-03T16:36:05.988Z,74.07
2023-05-03T16:38:33.380Z,74.45
2023-05-03T16:41:00.532Z,75.41
2023-05-03T16:43:27.760Z,76.72
2023-05-03T16:46:06.229Z,77.24
2023-05-03T16:48:34.644Z,76.77
2023-05-03T16:51:03.699Z,77.16
2023-05-03T16:53:31.479Z,79.45
2023-05-03T16:55:58.498Z,82.17
2023-05-03T16:58:25.763Z,81.12
2023-05-03T17:00:53.609Z,83.10
2023-05-03T17:03:21.264Z,84.38
2023-05-03T17:05:48.142Z,84.49
2023-05-03T17:08:15.467Z,88.81
2023-05-03T17:10:45.325Z,90.50
2023-05-03T17:13:12.939Z,92.91
2023-05-03T17:15:40.256Z,95.04
2023-05-03T17:18:08.656Z,96.56
2023-05-03T17:20:35.687Z,99.68
2023-05-03T17:23:02.938Z,100.00
2023-05-03T17:25:29.845Z,100.00
2023-05-03T17:27:57.062Z,100.00
2023-05-03T17:30:24.142Z,100.00
2023-05-03T17:32:51.397Z,100.00
2023-05-03T17:35:18.588Z,100.00
2023-05-03T17:37:48.260Z,100.00
2023-05-03T17:40:15.366Z,100.00
2023-05-03T17:42:44.895Z,100.00
2023-05-03T17:45:12.059Z,100.00
2023-05-03T17:47:39.544Z,100.00
2023-05-03T17:50:09.619Z,100.00
2023-05-03T17:52:39.994Z,100.00
2023-05-03T17:55:07.004Z,100.00
2023-05-03T17:57:37.473Z,100.00
2023-05-03T18:00:07.068Z,100.00
2023-05-03T18:02:34.520Z,100.00
2023-05-03T18:05:03.002Z,100.00
2023-05-03T18:07:30.177Z,100.00
2023-05-03T18:09:57.541Z,100.00
2023-05-03T18:12:25.783Z,100.00
2023-05-03T18:14:59.407Z,100.00
2023-05-03T18:17:27.412Z,100.00
2023-05-03T18:19:55.736Z,100.00
2023-05-03T18:22:23.438Z,100.00
2023-05-03T18:25:02.029Z,100.00
2023-05-03T18:27:29.397Z,100.00
2023-05-03T18:29:56.401Z,100.00
2023-05-03T18:32:25.330Z,100.00
2023-05-03T18:34:53.138Z,100.00
2023-05-03T18:37:24.492Z,100.00
2023-05-03T18:39:54.476Z,100.00
2023-05-03T18:42:22.933Z,100.00
2023-05-03T18:44:50.074Z,100.00
2023-05-03T18:47:21.772Z,100.00
2023-05-03T18:49:53.322Z,100.00
2023-05-03T18:52:24.741Z,100.00
2023-05-03T18:54:52.906Z,100.00
2023-05-03T18:57:21.039Z,100.00
2023-05-03T18:59:59.391Z,100.00
2023-05-03T19:02:31.469Z,100.00
2023-05-03T19:05:00.455Z,100.00
2023-05-03T19:07:32.391Z,100.00
2023-05-03T19:10:04.636Z,100.00
2023-05-03T19:12:33.752Z,100.00
2023-05-03T19:15:03.438Z,100.00
2023-05-03T19:17:31.581Z,100.00
2023-05-03T19:19:59.690Z,100.00
2023-05-03T19:22:29.975Z,100.00
2023-05-03T19:24:59.440Z,100.00
2023-05-03T19:27:27.793Z,100.00
2023-05-03T19:29:56.962Z,100.00
2023-05-03T19:32:26.910Z,100.00
2023-05-03T19:34:54.233Z,100.00
2023-05-03T19:37:22.165Z,100.00
2023-05-03T19:39:49.564Z,100.00
2023-05-03T19:42:17.980Z,100.00
2023-05-03T19:44:45.516Z,100.00
2023-05-03T19:47:13.647Z,100.00
2023-05-03T19:49:42.630Z,100.00
2023-05-03T19:52:10.872Z,100.00
2023-05-03T19:54:38.337Z,100.00
2023-05-03T19:57:06.570Z,100.00
2023-05-03T19:59:34.992Z,100.00
2023-05-03T20:02:02.742Z,100.00
2023-05-03T20:04:30.579Z,100.00
2023-05-03T20:06:58.452Z,100.00
2023-05-03T20:09:26.785Z,100.00
2023-05-03T20:11:58.934Z,100.00
2023-05-03T20:14:29.760Z,100.00
2023-05-03T20:16:57.803Z,100.00
2023-05-03T20:19:25.785Z,100.00
2023-05-03T20:21:53.631Z,100.00
2023-05-03T20:24:21.139Z,100.00
2023-05-03T20:26:48.412Z,100.00
2023-05-03T20:29:15.681Z,100.00
2023-05-03T20:31:42.845Z,100.00
2023-05-03T20:34:13.469Z,100.00
2023-05-03T20:36:40.872Z,100.00
2023-05-03T20:39:09.491Z,100.00
2023-05-03T20:41:39.102Z,100.00
2023-05-03T20:44:06.119Z,100.00
2023-05-03T20:46:37.169Z,100.00
2023-05-03T20:49:05.764Z,100.00
2023-05-03T20:51:34.550Z,100.00
2023-05-03T20:54:03.458Z,100.00
2023-05-03T20:56:31.905Z,100.00
2023-05-03T20:58:58.996Z,100.00
2023-05-03T21:01:26.313Z,100.00
2023-05-03T21:03:55.430Z,100.00
2023-05-03T21:06:22.842Z,100.00
2023-05-03T21:08:49.700Z,100.00
2023-05-03T21:11:17.102Z,100.00
2023-05-03T21:13:43.952Z,100.00
2023-05-03T21:16:11.229Z,100.00
2023-05-03T21:18:38.107Z,100.00
2023-05-03T21:21:05.355Z,100.00
2023-05-03T21:23:32.379Z,100.00
2023-05-03T21:25:59.484Z,100.00
2023-05-03T21:28:26.484Z,100.00
2023-05-03T21:30:54.391Z,100.00
2023-05-03T21:33:21.593Z,100.00
2023-05-03T21:35:51.799Z,100.00
2023-05-03T21:38:18.721Z,100.00
2023-05-03T21:40:47.223Z,100.00
2023-05-03T21:43:14.417Z,100.00
2023-05-03T21:45:43.187Z,100.00
2023-05-03T21:48:10.288Z,100.00
2023-05-03T21:50:43.619Z,100.00
2023-05-03T21:53:10.572Z,100.00
2023-05-03T21:55:40.196Z,100.00
2023-05-03T21:58:07.134Z,100.00
2023-05-03T22:00:36.109Z,100.00
2023-05-03T22:03:03.387Z,100.00
2023-05-03T22:05:31.032Z,100.00
2023-05-03T22:07:57.964Z,100.00
2023-05-03T22:10:25.375Z,100.00
2023-05-03T22:12:52.232Z,100.00
2023-05-03T22:15:19.937Z,100.00
2023-05-03T22:17:46.834Z,100.00
2023-05-03T22:20:14.075Z,100.00
2023-05-03T22:22:43.631Z,100.00
2023-05-03T22:25:21.617Z,100.00
2023-05-03T22:27:48.454Z,100.00
2023-05-03T22:30:15.923Z,100.00
2023-05-03T22:32:43.196Z,100.00
2023-05-03T22:35:10.608Z,100.00
2023-05-03T22:37:37.910Z,100.00
2023-05-03T22:40:05.910Z,100.00
2023-05-03T22:42:33.299Z,100.00
2023-05-03T22:45:00.864Z,100.00
2023-05-03T22:47:27.771Z,100.00
2023-05-03T22:49:55.001Z,100.00
2023-05-03T22:52:24.651Z,100.00
2023-05-03T22:54:56.128Z,100.00
2023-05-03T22:57:25.257Z,100.00
2023-05-03T22:59:52.387Z,100.00
2023-05-03T23:02:19.313Z,100.00
2023-05-03T23:04:46.619Z,100.00
2023-05-03T23:07:13.498Z,100.00
2023-05-03T23:09:40.761Z,100.00
2023-05-03T23:12:07.590Z,100.00
2023-05-03T23:14:34.967Z,100.00
2023-05-03T23:17:04.546Z,100.00
2023-05-03T23:19:34.383Z,100.00
2023-05-03T23:22:01.412Z,100.00
2023-05-03T23:24:30.969Z,100.00
2023-05-03T23:26:57.977Z,100.00
2023-05-03T23:29:27.986Z,100.00
2023-05-03T23:31:55.480Z,100.00
2023-05-03T23:34:23.258Z,100.00
2023-05-03T23:36:50.266Z,100.00
2023-05-03T23:39:17.546Z,100.00
2023-05-03T23:41:44.456Z,100.00
2023-05-03T23:44:11.782Z,100.00
2023-05-03T23:46:39.649Z,100.00
2023-05-03T23:49:07.704Z,100.00
2023-05-03T23:51:34.946Z,100.00
2023-05-03T23:54:02.264Z,100.00
2023-05-03T23:56:29.193Z,100.00
2023-05-03T23:58:56.869Z,100.00
